createdAt,value
2023-04-12T00:00:58.509Z,4.10
2023-04-12T00:03:25.743Z,4.05
2023-04-12T00:05:55.298Z,3.97
2023-04-12T00:08:33.995Z,3.78
2023-04-12T00:11:02.405Z,3.72
2023-04-12T00:13:30.320Z,3.50
2023-04-12T00:15:57.302Z,3.08
2023-04-12T00:18:25.891Z,2.65
2023-04-12T00:20:53.366Z,2.38
2023-04-12T00:23:20.516Z,2.35
2023-04-12T00:25:47.503Z,2.22
2023-04-12T00:28:16.242Z,2.50
2023-04-12T00:30:43.143Z,2.33
2023-04-12T00:33:09.971Z,2.38
2023-04-12T00:35:36.866Z,2.22
2023-04-12T00:38:04.360Z,2.22
2023-04-12T00:40:31.299Z,1.95
2023-04-12T00:42:58.027Z,2.13
2023-04-12T00:45:24.765Z,2.33
2023-04-12T00:47:51.915Z,2.20
2023-04-12T00:50:19.312Z,2.45
2023-04-12T00:52:46.358Z,2.38
2023-04-12T00:55:13.264Z,2.20
2023-04-12T00:57:40.817Z,1.70
2023-04-12T01:00:10.732Z,1.70
2023-04-12T01:02:39.590Z,1.98
2023-04-12T01:05:07.785Z,1.90
2023-04-12T01:07:56.176Z,1.83
2023-04-12T01:11:04.044Z,1.90
2023-04-12T01:13:36.645Z,2.30
2023-04-12T01:16:10.971Z,2.15
2023-04-12T01:18:42.050Z,2.20
2023-04-12T01:21:11.283Z,2.40
2023-04-12T01:24:02.278Z,2.20
2023-04-12T01:26:42.247Z,2.08
2023-04-12T01:29:12.007Z,2.22
2023-04-12T01:31:46.046Z,2.25
2023-04-12T01:34:13.430Z,2.00
2023-04-12T01:36:42.424Z,1.90
2023-04-12T01:39:09.749Z,1.88
2023-04-12T01:41:45.868Z,1.98
2023-04-12T01:44:17.040Z,2.10
2023-04-12T01:46:45.125Z,1.95
2023-04-12T01:49:13.187Z,1.70
2023-04-12T01:52:01.537Z,2.10
2023-04-12T01:54:30.430Z,2.13
2023-04-12T01:57:00.295Z,2.20
2023-04-12T02:04:36.170Z,1.92
2023-04-12T02:07:03.469Z,2.22
2023-04-12T02:09:30.765Z,2.17
2023-04-12T02:11:58.093Z,2.15
2023-04-12T02:14:24.828Z,2.10
2023-04-12T02:16:55.047Z,1.98
2023-04-12T02:19:22.634Z,1.92
2023-04-12T02:21:50.210Z,2.17
2023-04-12T02:24:17.044Z,1.80
2023-04-12T02:26:43.791Z,2.00
2023-04-12T02:29:10.665Z,1.95
2023-04-12T02:31:39.234Z,2.33
2023-04-12T02:34:06.766Z,2.17
2023-04-12T02:36:35.431Z,2.20
2023-04-12T02:39:02.306Z,2.25
2023-04-12T02:41:29.111Z,2.03
2023-04-12T02:43:56.004Z,2.10
2023-04-12T02:46:24.645Z,2.90
2023-04-12T02:48:51.962Z,2.00
2023-04-12T02:51:19.023Z,2.10
2023-04-12T02:53:45.922Z,2.15
2023-04-12T02:56:13.305Z,1.98
2023-04-12T02:58:40.769Z,2.30
2023-04-12T03:01:13.336Z,2.00
2023-04-12T03:03:40.979Z,2.10
2023-04-12T03:06:09.773Z,2.20
2023-04-12T03:08:36.483Z,1.95
2023-04-12T03:11:03.325Z,2.10
2023-04-12T03:13:30.235Z,2.25
2023-04-12T03:15:59.302Z,2.08
2023-04-12T03:18:26.190Z,1.95
2023-04-12T03:20:52.918Z,2.38
2023-04-12T03:23:20.743Z,2.00
2023-04-12T03:25:47.599Z,2.20
2023-04-12T03:28:14.407Z,2.13
2023-04-12T03:30:41.253Z,2.10
2023-04-12T03:33:08.344Z,2.28
2023-04-12T03:35:35.250Z,2.33
2023-04-12T03:38:02.285Z,2.40
2023-04-12T03:40:29.038Z,2.40
2023-04-12T03:42:55.841Z,2.55
2023-04-12T03:45:22.545Z,2.33
2023-04-12T03:47:49.792Z,2.70
2023-04-12T03:50:16.626Z,2.88
2023-04-12T03:52:43.351Z,2.45
2023-04-12T03:55:10.361Z,2.30
2023-04-12T03:57:37.631Z,2.28
2023-04-12T04:00:06.029Z,2.65
2023-04-12T04:02:33.807Z,2.15
2023-04-12T04:05:02.682Z,2.10
2023-04-12T04:07:29.573Z,1.90
2023-04-12T04:09:56.478Z,1.70
2023-04-12T04:12:23.150Z,2.00
2023-04-12T04:14:49.985Z,1.75
2023-04-12T04:17:16.860Z,2.10
2023-04-12T04:19:43.588Z,1.88
2023-04-12T04:22:10.563Z,2.47
2023-04-12T04:24:39.420Z,2.75
2023-04-12T04:27:06.818Z,2.50
2023-04-12T04:29:34.337Z,2.70
2023-04-12T04:32:01.757Z,2.95
2023-04-12T04:34:28.617Z,3.70
2023-04-12T04:36:55.405Z,3.00
2023-04-12T04:39:22.210Z,2.60
2023-04-12T04:41:55.196Z,2.55
2023-04-12T04:44:22.266Z,2.88
2023-04-12T04:46:49.649Z,2.78
2023-04-12T04:49:16.661Z,2.72
2023-04-12T04:51:43.423Z,2.78
2023-04-12T04:54:10.439Z,2.55
2023-04-12T04:56:39.975Z,2.78
2023-04-12T04:59:06.767Z,2.88
2023-04-12T05:01:36.843Z,3.17
2023-04-12T05:04:04.416Z,3.25
2023-04-12T05:06:32.111Z,3.72
2023-04-12T05:08:59.470Z,4.82
2023-04-12T05:11:26.691Z,4.35
2023-04-12T05:13:54.201Z,5.57
2023-04-12T05:16:21.069Z,6.10
2023-04-12T05:18:47.778Z,3.92
2023-04-12T05:21:14.741Z,3.53
2023-04-12T05:23:47.325Z,3.22
2023-04-12T05:26:14.356Z,2.72
2023-04-12T05:28:41.784Z,2.60
2023-04-12T05:31:09.578Z,2.40
2023-04-12T05:33:37.820Z,2.30
2023-04-12T05:36:05.287Z,2.40
2023-04-12T05:38:32.106Z,2.60
2023-04-12T05:40:58.956Z,2.40
2023-04-12T05:43:30.037Z,2.30
2023-04-12T05:45:57.224Z,2.47
2023-04-12T05:48:24.108Z,2.40
2023-04-12T05:50:54.788Z,2.85
2023-04-12T05:53:23.545Z,2.50
2023-04-12T05:55:51.879Z,2.45
2023-04-12T05:58:19.162Z,2.00
2023-04-12T06:00:46.046Z,2.20
2023-04-12T06:03:13.221Z,1.95
2023-04-12T06:05:40.196Z,2.20
2023-04-12T06:08:07.220Z,2.10
2023-04-12T06:10:34.205Z,2.10
2023-04-12T06:13:01.097Z,1.80
2023-04-12T06:15:28.488Z,2.03
2023-04-12T06:17:55.335Z,2.75
2023-04-12T06:20:22.116Z,2.58
2023-04-12T06:22:49.016Z,2.40
2023-04-12T06:25:16.916Z,2.40
2023-04-12T06:27:44.173Z,2.40
2023-04-12T06:30:11.376Z,2.60
2023-04-12T06:32:39.217Z,2.50
2023-04-12T06:35:06.878Z,2.40
2023-04-12T06:37:33.720Z,2.40
2023-04-12T06:40:00.689Z,2.35
2023-04-12T06:42:27.890Z,2.15
2023-04-12T06:44:54.715Z,1.95
2023-04-12T06:47:23.422Z,2.13
2023-04-12T06:49:54.791Z,2.15
2023-04-12T06:52:28.585Z,1.90
2023-04-12T06:54:57.048Z,1.90
2023-04-12T06:57:24.407Z,2.40
2023-04-12T06:59:52.165Z,1.90
2023-04-12T07:02:19.398Z,1.92
2023-04-12T07:04:46.284Z,2.33
2023-04-12T07:07:16.393Z,2.25
2023-04-12T07:09:44.095Z,2.17
2023-04-12T07:12:10.942Z,2.30
2023-04-12T07:14:38.097Z,2.00
2023-04-12T07:17:04.776Z,2.00
2023-04-12T07:19:31.935Z,1.90
2023-04-12T07:21:59.010Z,2.42
2023-04-12T07:24:26.184Z,2.33
2023-04-12T07:26:54.942Z,2.22
2023-04-12T07:29:22.441Z,2.30
2023-04-12T07:31:49.880Z,1.90
2023-04-12T07:34:17.044Z,2.10
2023-04-12T07:36:47.024Z,1.58
2023-04-12T07:39:14.638Z,1.75
2023-04-12T07:41:46.466Z,1.40
2023-04-12T07:44:13.276Z,1.60
2023-04-12T07:46:40.962Z,1.48
2023-04-12T07:49:10.683Z,1.80
2023-04-12T07:51:38.110Z,1.60
2023-04-12T07:54:05.332Z,1.50
2023-04-12T07:56:36.293Z,1.17
2023-04-12T07:59:03.111Z,1.50
2023-04-12T08:01:30.992Z,1.40
2023-04-12T08:03:59.066Z,1.17
2023-04-12T08:06:29.418Z,1.17
2023-04-12T08:08:58.305Z,1.58
2023-04-12T08:11:25.049Z,1.20
2023-04-12T08:13:52.012Z,1.20
2023-04-12T08:16:18.917Z,1.30
2023-04-12T08:18:45.972Z,1.20
2023-04-12T08:21:12.989Z,1.10
2023-04-12T08:23:39.988Z,1.00
2023-04-12T08:26:07.001Z,1.00
2023-04-12T08:28:34.726Z,0.93
2023-04-12T08:31:01.903Z,0.95
2023-04-12T08:33:28.881Z,1.10
2023-04-12T08:35:56.299Z,1.00
2023-04-12T08:38:37.313Z,1.00
2023-04-12T08:41:08.606Z,0.90
2023-04-12T08:43:36.298Z,1.00
2023-04-12T08:46:03.386Z,1.10
2023-04-12T08:48:30.455Z,1.20
2023-04-12T08:50:58.581Z,1.30
2023-04-12T08:53:26.050Z,1.40
2023-04-12T08:55:53.322Z,1.20
2023-04-12T08:58:21.105Z,1.00
2023-04-12T09:00:48.418Z,1.10
2023-04-12T09:03:15.717Z,1.13
2023-04-12T09:05:43.512Z,1.00
2023-04-12T09:08:10.470Z,0.90
2023-04-12T09:10:38.611Z,1.00
2023-04-12T09:13:06.658Z,0.80
2023-04-12T09:15:34.649Z,1.00
2023-04-12T09:18:09.542Z,0.85
2023-04-12T09:20:37.884Z,0.93
2023-04-12T09:23:21.913Z,1.00
2023-04-12T09:25:52.534Z,1.00
2023-04-12T09:28:21.886Z,0.98
2023-04-12T09:30:51.985Z,1.20
2023-04-12T09:33:23.894Z,0.70
2023-04-12T09:35:51.659Z,0.90
2023-04-12T09:38:19.120Z,0.82
2023-04-12T09:40:46.338Z,1.00
2023-04-12T09:43:13.426Z,0.90
2023-04-12T09:45:40.637Z,0.90
2023-04-12T09:48:08.217Z,0.88
2023-04-12T09:50:35.155Z,1.00
2023-04-12T09:53:03.606Z,1.00
2023-04-12T09:55:32.697Z,1.20
2023-04-12T09:58:02.793Z,1.20
2023-04-12T10:00:32.300Z,1.00
2023-04-12T10:02:59.328Z,1.00
2023-04-12T10:05:27.600Z,1.10
2023-04-12T10:07:55.537Z,1.00
2023-04-12T10:10:23.678Z,1.02
2023-04-12T10:12:51.201Z,1.10
2023-04-12T10:15:18.733Z,0.95
2023-04-12T10:17:53.154Z,0.80
2023-04-12T10:22:50.367Z,0.70
2023-04-12T10:25:20.176Z,0.90
2023-04-12T10:27:48.081Z,0.70
2023-04-12T10:30:34.115Z,0.70
2023-04-12T10:33:20.173Z,0.80
2023-04-12T10:36:13.812Z,0.70
2023-04-12T10:38:46.657Z,0.80
2023-04-12T10:41:15.892Z,0.82
2023-04-12T10:43:44.942Z,0.70
2023-04-12T10:46:40.122Z,0.98
2023-04-12T10:49:11.844Z,0.90
2023-04-12T10:51:39.035Z,0.80
2023-04-12T10:54:32.887Z,1.20
2023-04-12T10:57:00.169Z,1.33
2023-04-12T10:59:59.745Z,1.80
2023-04-12T11:02:26.761Z,1.23
2023-04-12T11:05:11.894Z,1.88
2023-04-12T11:07:41.474Z,1.90
2023-04-12T11:10:15.963Z,1.20
2023-04-12T11:12:57.847Z,1.10
2023-04-12T11:17:57.857Z,1.50
2023-04-12T11:20:27.891Z,1.70
2023-04-12T11:22:55.221Z,1.73
2023-04-12T11:25:22.277Z,1.15
2023-04-12T11:27:51.216Z,1.60
2023-04-12T11:30:20.522Z,1.20
2023-04-12T11:32:47.964Z,1.00
2023-04-12T11:35:15.952Z,1.25
2023-04-12T11:37:44.320Z,1.00
2023-04-12T11:40:11.772Z,1.55
2023-04-12T11:42:40.602Z,1.20
2023-04-12T11:45:15.886Z,0.80
2023-04-12T11:47:46.195Z,1.40
2023-04-12T11:50:13.729Z,1.38
2023-04-12T11:52:41.716Z,1.80
2023-04-12T11:55:11.769Z,1.77
2023-04-12T11:57:39.914Z,1.70
2023-04-12T12:00:11.036Z,1.70
2023-04-12T12:02:43.601Z,1.20
2023-04-12T12:05:16.461Z,1.55
2023-04-12T12:07:44.008Z,1.35
2023-04-12T12:10:16.401Z,1.05
2023-04-12T12:12:48.437Z,1.05
2023-04-12T12:15:16.647Z,1.20
2023-04-12T12:17:43.434Z,0.98
2023-04-12T12:20:21.062Z,0.90
2023-04-12T12:22:50.188Z,0.90
2023-04-12T12:25:21.091Z,0.80
2023-04-12T12:27:51.646Z,0.70
2023-04-12T12:30:21.263Z,0.82
2023-04-12T12:32:52.929Z,0.80
2023-04-12T12:35:20.714Z,0.70
2023-04-12T12:37:56.083Z,0.80
2023-04-12T12:40:32.825Z,0.65
2023-04-12T12:43:00.735Z,0.60
2023-04-12T12:45:29.364Z,0.40
2023-04-12T12:47:59.552Z,0.60
2023-04-12T12:50:28.091Z,0.40
2023-04-12T12:52:55.677Z,0.60
2023-04-12T12:55:23.670Z,0.55
2023-04-12T12:58:06.851Z,0.70
2023-04-12T13:03:02.429Z,0.70
2023-04-12T13:05:29.983Z,0.80
2023-04-12T13:07:56.718Z,0.70
2023-04-12T13:10:24.360Z,1.23
2023-04-12T13:12:51.750Z,1.08
2023-04-12T13:15:23.001Z,1.00
2023-04-12T13:17:52.632Z,1.40
2023-04-12T13:20:19.662Z,0.95
2023-04-12T13:22:46.918Z,3.33
2023-04-12T13:25:14.386Z,2.47
2023-04-12T13:27:41.805Z,2.25
2023-04-12T13:30:10.693Z,1.30
2023-04-12T13:32:38.553Z,0.90
2023-04-12T13:35:05.806Z,0.70
2023-04-12T13:37:34.006Z,0.68
2023-04-12T13:40:00.819Z,0.43
2023-04-12T13:42:27.794Z,0.63
2023-04-12T13:44:54.698Z,0.73
2023-04-12T13:47:22.417Z,0.88
2023-04-12T13:49:49.524Z,0.80
2023-04-12T13:52:18.870Z,0.70
2023-04-12T13:54:45.887Z,0.70
2023-04-12T13:57:13.171Z,0.80
2023-04-12T13:59:40.132Z,0.88
2023-04-12T14:02:08.051Z,0.70
2023-04-12T14:04:34.987Z,0.82
2023-04-12T14:07:02.713Z,1.00
2023-04-12T14:09:32.282Z,1.15
2023-04-12T14:12:02.069Z,0.75
2023-04-12T14:14:29.970Z,0.60
2023-04-12T14:16:57.966Z,0.80
2023-04-12T14:19:25.211Z,0.80
2023-04-12T14:21:52.576Z,1.77
2023-04-12T14:24:20.677Z,1.48
2023-04-12T14:26:48.842Z,1.55
2023-04-12T14:29:15.923Z,1.70
2023-04-12T14:31:42.745Z,1.30
2023-04-12T14:34:11.267Z,0.88
2023-04-12T14:36:38.550Z,0.85
2023-04-12T14:39:08.445Z,0.80
2023-04-12T14:41:36.978Z,1.20
2023-04-12T14:44:10.830Z,0.75
2023-04-12T14:46:39.480Z,0.75
2023-04-12T14:49:06.583Z,0.95
2023-04-12T14:51:34.204Z,0.70
2023-04-12T14:54:04.001Z,0.65
2023-04-12T14:56:31.700Z,1.20
2023-04-12T14:58:59.910Z,1.40
2023-04-12T15:01:28.578Z,1.10
2023-04-12T15:03:55.711Z,1.20
2023-04-12T15:06:24.236Z,1.15
2023-04-12T15:08:55.251Z,0.80
2023-04-12T15:11:27.518Z,1.40
2023-04-12T15:13:56.332Z,0.90
2023-04-12T15:16:23.712Z,0.90
2023-04-12T15:18:51.889Z,1.00
2023-04-12T15:21:18.932Z,1.80
2023-04-12T15:23:46.530Z,2.47
2023-04-12T15:26:14.764Z,1.83
2023-04-12T15:28:42.559Z,0.85
2023-04-12T15:31:09.871Z,2.30
2023-04-12T15:33:37.588Z,5.90
2023-04-12T15:36:06.492Z,5.50
2023-04-12T15:38:41.155Z,3.90
2023-04-12T15:41:08.225Z,2.63
2023-04-12T15:43:35.258Z,1.80
2023-04-12T15:46:02.873Z,1.50
2023-04-12T15:48:30.241Z,2.08
2023-04-12T15:50:57.275Z,1.95
2023-04-12T15:53:26.337Z,1.70
2023-04-12T15:55:56.691Z,1.70
2023-04-12T15:58:24.576Z,1.13
2023-04-12T16:00:54.630Z,1.20
2023-04-12T16:03:26.940Z,1.30
2023-04-12T16:05:54.911Z,1.40
2023-04-12T16:08:22.748Z,1.35
2023-04-12T16:10:51.089Z,1.95
2023-04-12T16:13:18.953Z,2.10
2023-04-12T16:15:46.772Z,2.72
2023-04-12T16:18:14.160Z,1.98
2023-04-12T16:20:41.663Z,2.00
2023-04-12T16:23:10.245Z,1.73
2023-04-12T16:26:00.524Z,1.80
2023-04-12T16:28:38.129Z,1.60
2023-04-12T16:31:06.861Z,1.85
2023-04-12T16:33:34.352Z,3.05
2023-04-12T16:36:02.186Z,2.90
2023-04-12T16:38:29.378Z,2.25
2023-04-12T16:40:57.166Z,1.77
2023-04-12T16:43:24.391Z,1.80
2023-04-12T16:45:51.366Z,1.60
2023-04-12T16:48:23.084Z,1.70
2023-04-12T16:50:49.853Z,2.10
2023-04-12T16:53:17.314Z,1.52
2023-04-12T16:55:47.760Z,0.20
2023-04-12T16:58:24.142Z,0.22
2023-04-12T17:00:51.668Z,0.30
2023-04-12T17:03:21.524Z,0.30
2023-04-12T17:05:49.283Z,0.20
2023-04-12T17:08:17.499Z,0.10
2023-04-12T17:10:44.437Z,0.17
2023-04-12T17:13:11.447Z,1.55
2023-04-12T17:15:38.763Z,0.10
2023-04-12T17:18:09.947Z,0.20
2023-04-12T17:20:37.254Z,0.40
2023-04-12T17:23:07.230Z,0.30
2023-04-12T17:25:35.284Z,0.50
2023-04-12T17:28:03.836Z,0.50
2023-04-12T17:30:31.305Z,0.43
2023-04-12T17:33:01.494Z,0.60
2023-04-12T17:35:29.557Z,0.90
2023-04-12T17:37:56.719Z,0.60
2023-04-12T17:40:24.450Z,0.70
2023-04-12T17:42:51.722Z,0.30
2023-04-12T17:45:22.087Z,0.50
2023-04-12T17:47:49.154Z,0.75
2023-04-12T17:50:17.085Z,1.90
2023-04-12T17:52:44.510Z,1.40
2023-04-12T17:55:12.783Z,1.00
2023-04-12T17:57:40.409Z,0.73
2023-04-12T18:00:12.542Z,1.08
2023-04-12T18:02:40.614Z,2.85
2023-04-12T18:05:08.252Z,1.75
2023-04-12T18:07:35.773Z,1.80
2023-04-12T18:10:03.500Z,1.52
2023-04-12T18:12:30.464Z,1.23
2023-04-12T18:14:57.877Z,1.35
2023-04-12T18:17:26.630Z,2.83
2023-04-12T18:19:54.652Z,2.63
2023-04-12T18:22:21.752Z,1.73
2023-04-12T18:24:48.750Z,1.50
2023-04-12T18:27:16.292Z,1.10
2023-04-12T18:29:43.253Z,1.08
2023-04-12T18:32:10.392Z,1.30
2023-04-12T18:34:37.306Z,1.58
2023-04-12T18:37:06.252Z,2.63
2023-04-12T18:39:34.797Z,2.70
2023-04-12T18:42:01.845Z,2.38
2023-04-12T18:44:29.822Z,2.47
2023-04-12T18:46:56.975Z,1.30
2023-04-12T18:49:24.428Z,1.30
2023-04-12T18:51:53.449Z,1.30
2023-04-12T18:54:21.366Z,1.38
2023-04-12T18:56:48.268Z,1.35
2023-04-12T18:59:18.205Z,1.67
2023-04-12T19:01:46.364Z,1.70
2023-04-12T19:04:13.225Z,2.30
2023-04-12T19:06:39.982Z,2.13
2023-04-12T19:09:07.086Z,1.90
2023-04-12T19:11:36.774Z,2.00
2023-04-12T19:14:04.367Z,2.13
2023-04-12T19:16:31.390Z,1.75
2023-04-12T19:19:00.379Z,2.50
2023-04-12T19:21:31.323Z,2.25
2023-04-12T19:23:58.686Z,2.60
2023-04-12T19:26:26.303Z,1.85
2023-04-12T19:28:55.816Z,2.60
2023-04-12T19:31:24.024Z,1.30
2023-04-12T19:33:50.805Z,0.65
2023-04-12T19:36:17.823Z,0.30
2023-04-12T19:38:44.892Z,0.13
2023-04-12T19:41:12.394Z,0.20
2023-04-12T19:43:39.396Z,0.30
2023-04-12T19:46:06.132Z,0.28
2023-04-12T19:48:33.044Z,0.30
2023-04-12T19:51:00.026Z,0.30
2023-04-12T19:53:27.222Z,0.40
2023-04-12T19:55:57.525Z,0.30
2023-04-12T19:58:25.289Z,0.55
2023-04-12T20:00:53.497Z,0.50
2023-04-12T20:03:20.319Z,0.52
2023-04-12T20:05:47.906Z,0.90
2023-04-12T20:08:16.350Z,0.77
2023-04-12T20:10:43.408Z,1.00
2023-04-12T20:13:15.430Z,0.75
2023-04-12T20:15:43.210Z,0.80
2023-04-12T20:18:11.644Z,0.98
2023-04-12T20:20:38.444Z,0.80
2023-04-12T20:23:05.493Z,0.90
2023-04-12T20:25:38.087Z,1.00
2023-04-12T20:28:04.958Z,1.00
2023-04-12T20:30:32.037Z,1.15
2023-04-12T20:32:59.155Z,1.40
2023-04-12T20:35:26.054Z,1.33
2023-04-12T20:37:53.264Z,1.35
2023-04-12T20:40:23.434Z,1.10
2023-04-12T20:42:50.524Z,1.20
2023-04-12T20:45:19.145Z,1.40
2023-04-12T20:47:46.350Z,1.08
2023-04-12T20:50:13.185Z,1.20
2023-04-12T20:52:40.046Z,1.20
2023-04-12T20:55:07.904Z,1.50
2023-04-12T20:57:35.413Z,1.52
2023-04-12T21:00:10.679Z,1.20
2023-04-12T21:02:39.366Z,1.05
2023-04-12T21:05:06.846Z,1.40
2023-04-12T21:07:33.962Z,1.27
2023-04-12T21:10:02.435Z,1.23
2023-04-12T21:12:32.419Z,1.00
2023-04-12T21:15:01.059Z,1.10
2023-04-12T21:17:30.444Z,0.90
2023-04-12T21:19:58.818Z,1.40
2023-04-12T21:22:26.033Z,1.63
2023-04-12T21:24:52.964Z,1.50
2023-04-12T21:27:19.828Z,1.67
2023-04-12T21:29:47.532Z,1.50
2023-04-12T21:32:15.070Z,1.70
2023-04-12T21:34:41.840Z,2.78
2023-04-12T21:37:09.402Z,2.95
2023-04-12T21:39:36.414Z,3.60
2023-04-12T21:42:03.591Z,3.83
2023-04-12T21:44:31.553Z,3.50
2023-04-12T21:46:58.244Z,3.50
2023-04-12T21:49:25.057Z,3.60
2023-04-12T21:51:52.674Z,2.63
2023-04-12T21:54:20.645Z,2.95
2023-04-12T21:56:47.805Z,3.58
2023-04-12T21:59:14.556Z,3.13
2023-04-12T22:01:42.187Z,3.17
2023-04-12T22:04:09.443Z,3.17
2023-04-12T22:06:36.217Z,3.25
2023-04-12T22:09:05.119Z,3.15
2023-04-12T22:11:31.890Z,2.10
2023-04-12T22:13:58.692Z,1.75
2023-04-12T22:16:25.543Z,2.45
2023-04-12T22:18:53.050Z,2.63
2023-04-12T22:21:19.869Z,2.88
2023-04-12T22:23:47.055Z,3.00
2023-04-12T22:26:14.039Z,2.80
2023-04-12T22:28:42.879Z,2.63
2023-04-12T22:31:14.723Z,2.70
2023-04-12T22:33:42.221Z,2.42
2023-04-12T22:36:09.890Z,1.90
2023-04-12T22:38:38.289Z,5.80
2023-04-12T22:41:05.352Z,3.30
2023-04-12T22:43:38.430Z,3.55
2023-04-12T22:46:06.190Z,3.20
2023-04-12T22:48:33.017Z,3.13
2023-04-12T22:51:01.284Z,3.70
2023-04-12T22:53:28.758Z,3.20
2023-04-12T22:55:56.664Z,3.08
2023-04-12T22:58:24.166Z,3.15
2023-04-12T23:00:51.231Z,4.60
2023-04-12T23:03:19.033Z,3.88
2023-04-12T23:05:46.701Z,3.72
2023-04-12T23:08:14.536Z,3.45
2023-04-12T23:10:44.729Z,3.90
2023-04-12T23:13:12.075Z,4.20
2023-04-12T23:15:41.869Z,4.40
2023-04-12T23:18:09.027Z,5.28
2023-04-12T23:20:35.936Z,4.38
2023-04-12T23:23:03.104Z,5.05
2023-04-12T23:25:39.681Z,6.07
2023-04-12T23:28:14.566Z,5.28
2023-04-12T23:30:48.468Z,4.65
2023-04-12T23:33:18.655Z,4.85
2023-04-12T23:35:46.978Z,4.35
2023-04-12T23:38:16.356Z,4.32
2023-04-12T23:40:43.827Z,5.10
2023-04-12T23:43:11.173Z,5.28
2023-04-12T23:45:39.010Z,4.75
2023-04-12T23:48:07.345Z,5.78
2023-04-12T23:50:34.355Z,6.07
2023-04-12T23:53:01.173Z,5.60
2023-04-12T23:55:28.002Z,4.82
2023-04-12T23:57:54.818Z,4.90
